sensor_id;sensor_type;location;lat;lon;timestamp;P1;durP1;ratioP1;P2;durP2;ratioP2
2187;SDS011;1100;52.014;8.540;2023-07-20T00:02:04;2.17;;;0.80;;
2187;SDS011;1100;52.014;8.540;2023-07-20T00:04:30;2.28;;;0.85;;
2187;SDS011;1100;52.014;8.540;2023-07-20T00:06:56;5.57;;;1.23;;
2187;SDS011;1100;52.014;8.540;2023-07-20T00:09:21;3.28;;;0.93;;
2187;SDS011;1100;52.014;8.540;2023-07-20T00:11:50;3.30;;;1.57;;
2187;SDS011;1100;52.014;8.540;2023-07-20T00:14:16;3.10;;;1.30;;
2187;SDS011;1100;52.014;8.540;2023-07-20T00:16:43;3.17;;;1.20;;
2187;SDS011;1100;52.014;8.540;2023-07-20T00:19:08;2.92;;;0.75;;
2187;SDS011;1100;52.014;8.540;2023-07-20T00:21:34;2.47;;;1.10;;
2187;SDS011;1100;52.014;8.540;2023-07-20T00:23:59;4.27;;;1.63;;
2187;SDS011;1100;52.014;8.540;2023-07-20T00:26:24;3.63;;;1.77;;
2187;SDS011;1100;52.014;8.540;2023-07-20T00:28:50;2.73;;;1.13;;
2187;SDS011;1100;52.014;8.540;2023-07-20T00:31:16;3.63;;;1.50;;
2187;SDS011;1100;52.014;8.540;2023-07-20T00:33:41;3.07;;;1.20;;
2187;SDS011;1100;52.014;8.540;2023-07-20T00:36:07;2.80;;;1.23;;
2187;SDS011;1100;52.014;8.540;2023-07-20T00:38:32;5.70;;;1.63;;
2187;SDS011;1100;52.014;8.540;2023-07-20T00:40:57;2.90;;;1.27;;
2187;SDS011;1100;52.014;8.540;2023-07-20T00:43:23;4.47;;;1.63;;
2187;SDS011;1100;52.014;8.540;2023-07-20T00:45:48;5.00;;;1.90;;
2187;SDS011;1100;52.014;8.540;2023-07-20T00:48:14;2.83;;;1.25;;
2187;SDS011;1100;52.014;8.540;2023-07-20T00:50:40;3.67;;;2.03;;
2187;SDS011;1100;52.014;8.540;2023-07-20T00:53:05;4.18;;;1.70;;
2187;SDS011;1100;52.014;8.540;2023-07-20T00:55:31;3.40;;;1.50;;
2187;SDS011;1100;52.014;8.540;2023-07-20T00:57:56;3.47;;;1.77;;
2187;SDS011;1100;52.014;8.540;2023-07-20T01:00:22;5.60;;;2.15;;
2187;SDS011;1100;52.014;8.540;2023-07-20T01:02:48;3.73;;;1.83;;
2187;SDS011;1100;52.014;8.540;2023-07-20T01:05:13;3.47;;;1.83;;
2187;SDS011;1100;52.014;8.540;2023-07-20T01:07:44;4.28;;;1.80;;
2187;SDS011;1100;52.014;8.540;2023-07-20T01:10:20;3.78;;;1.90;;
2187;SDS011;1100;52.014;8.540;2023-07-20T01:12:54;4.13;;;1.73;;
2187;SDS011;1100;52.014;8.540;2023-07-20T01:15:20;4.47;;;2.17;;
2187;SDS011;1100;52.014;8.540;2023-07-20T01:17:45;4.93;;;1.97;;
2187;SDS011;1100;52.014;8.540;2023-07-20T01:20:12;3.83;;;2.13;;
2187;SDS011;1100;52.014;8.540;2023-07-20T01:25:34;3.57;;;1.77;;
2187;SDS011;1100;52.014;8.540;2023-07-20T01:33:45;5.07;;;1.77;;
2187;SDS011;1100;52.014;8.540;2023-07-20T01:36:13;4.60;;;2.15;;
2187;SDS011;1100;52.014;8.540;2023-07-20T01:38:39;4.20;;;1.93;;
2187;SDS011;1100;52.014;8.540;2023-07-20T01:41:05;4.85;;;2.20;;
2187;SDS011;1100;52.014;8.540;2023-07-20T01:43:31;5.40;;;2.33;;
2187;SDS011;1100;52.014;8.540;2023-07-20T01:45:56;3.97;;;2.05;;
2187;SDS011;1100;52.014;8.540;2023-07-20T01:48:22;4.10;;;2.00;;
2187;SDS011;1100;52.014;8.540;2023-07-20T01:50:47;5.50;;;2.23;;
2187;SDS011;1100;52.014;8.540;2023-07-20T01:53:13;4.43;;;2.37;;
2187;SDS011;1100;52.014;8.540;2023-07-20T01:55:38;4.13;;;1.80;;
2187;SDS011;1100;52.014;8.540;2023-07-20T01:58:03;5.17;;;2.00;;
2187;SDS011;1100;52.014;8.540;2023-07-20T02:00:29;3.88;;;1.88;;
2187;SDS011;1100;52.014;8.540;2023-07-20T02:02:54;3.17;;;1.70;;
2187;SDS011;1100;52.014;8.540;2023-07-20T02:05:20;5.13;;;2.27;;
2187;SDS011;1100;52.014;8.540;2023-07-20T02:07:45;3.87;;;1.70;;
2187;SDS011;1100;52.014;8.540;2023-07-20T02:10:10;3.40;;;1.47;;
2187;SDS011;1100;52.014;8.540;2023-07-20T02:12:36;5.07;;;1.97;;
2187;SDS011;1100;52.014;8.540;2023-07-20T02:15:02;3.80;;;1.63;;
2187;SDS011;1100;52.014;8.540;2023-07-20T02:17:28;4.83;;;2.47;;
2187;SDS011;1100;52.014;8.540;2023-07-20T02:19:53;3.13;;;1.33;;
2187;SDS011;1100;52.014;8.540;2023-07-20T02:22:20;4.57;;;2.20;;
2187;SDS011;1100;52.014;8.540;2023-07-20T02:24:45;4.82;;;2.47;;
2187;SDS011;1100;52.014;8.540;2023-07-20T02:27:11;4.33;;;1.97;;
2187;SDS011;1100;52.014;8.540;2023-07-20T02:29:36;4.10;;;2.23;;
2187;SDS011;1100;52.014;8.540;2023-07-20T02:32:01;5.23;;;2.70;;
2187;SDS011;1100;52.014;8.540;2023-07-20T02:34:27;5.65;;;2.53;;
2187;SDS011;1100;52.014;8.540;2023-07-20T02:36:52;6.67;;;2.70;;
2187;SDS011;1100;52.014;8.540;2023-07-20T02:39:18;4.47;;;1.93;;
2187;SDS011;1100;52.014;8.540;2023-07-20T02:41:43;3.90;;;2.10;;
2187;SDS011;1100;52.014;8.540;2023-07-20T02:44:08;4.82;;;2.35;;
2187;SDS011;1100;52.014;8.540;2023-07-20T02:46:33;6.70;;;3.27;;
2187;SDS011;1100;52.014;8.540;2023-07-20T02:49:00;6.30;;;2.37;;
2187;SDS011;1100;52.014;8.540;2023-07-20T02:51:25;5.75;;;2.70;;
2187;SDS011;1100;52.014;8.540;2023-07-20T02:53:51;5.50;;;1.77;;
2187;SDS011;1100;52.014;8.540;2023-07-20T02:56:16;4.70;;;2.83;;
2187;SDS011;1100;52.014;8.540;2023-07-20T02:58:43;4.65;;;1.92;;
2187;SDS011;1100;52.014;8.540;2023-07-20T03:01:09;4.23;;;2.53;;
2187;SDS011;1100;52.014;8.540;2023-07-20T03:03:35;4.13;;;2.45;;
2187;SDS011;1100;52.014;8.540;2023-07-20T03:06:03;5.00;;;1.95;;
2187;SDS011;1100;52.014;8.540;2023-07-20T03:08:29;4.45;;;2.17;;
2187;SDS011;1100;52.014;8.540;2023-07-20T03:10:55;5.30;;;1.87;;
2187;SDS011;1100;52.014;8.540;2023-07-20T03:13:20;4.40;;;2.37;;
2187;SDS011;1100;52.014;8.540;2023-07-20T03:15:46;5.33;;;2.97;;
2187;SDS011;1100;52.014;8.540;2023-07-20T03:18:11;4.85;;;2.22;;
2187;SDS011;1100;52.014;8.540;2023-07-20T03:20:37;3.57;;;1.87;;
2187;SDS011;1100;52.014;8.540;2023-07-20T03:23:03;4.55;;;2.28;;
2187;SDS011;1100;52.014;8.540;2023-07-20T03:25:28;5.57;;;2.80;;
2187;SDS011;1100;52.014;8.540;2023-07-20T03:27:54;5.97;;;2.40;;
2187;SDS011;1100;52.014;8.540;2023-07-20T03:30:19;4.70;;;2.50;;
2187;SDS011;1100;52.014;8.540;2023-07-20T03:32:44;4.70;;;2.70;;
2187;SDS011;1100;52.014;8.540;2023-07-20T03:35:10;3.80;;;2.30;;
2187;SDS011;1100;52.014;8.540;2023-07-20T03:37:35;4.53;;;2.10;;
2187;SDS011;1100;52.014;8.540;2023-07-20T03:40:02;5.65;;;3.00;;
2187;SDS011;1100;52.014;8.540;2023-07-20T03:42:28;3.67;;;1.90;;
2187;SDS011;1100;52.014;8.540;2023-07-20T03:44:53;4.13;;;1.90;;
2187;SDS011;1100;52.014;8.540;2023-07-20T03:47:18;4.93;;;2.93;;
2187;SDS011;1100;52.014;8.540;2023-07-20T03:49:44;4.43;;;1.87;;
2187;SDS011;1100;52.014;8.540;2023-07-20T03:52:09;3.30;;;1.80;;
2187;SDS011;1100;52.014;8.540;2023-07-20T03:54:34;2.83;;;1.10;;
2187;SDS011;1100;52.014;8.540;2023-07-20T03:57:00;2.83;;;1.23;;
2187;SDS011;1100;52.014;8.540;2023-07-20T03:59:26;3.07;;;1.20;;
2187;SDS011;1100;52.014;8.540;2023-07-20T04:01:51;3.43;;;1.43;;
2187;SDS011;1100;52.014;8.540;2023-07-20T04:04:17;2.40;;;1.07;;
2187;SDS011;1100;52.014;8.540;2023-07-20T04:06:42;3.17;;;1.13;;
2187;SDS011;1100;52.014;8.540;2023-07-20T04:09:11;2.95;;;1.10;;
2187;SDS011;1100;52.014;8.540;2023-07-20T04:11:37;1.40;;;0.60;;
2187;SDS011;1100;52.014;8.540;2023-07-20T04:14:02;1.67;;;0.60;;
2187;SDS011;1100;52.014;8.540;2023-07-20T04:16:27;2.30;;;0.93;;
2187;SDS011;1100;52.014;8.540;2023-07-20T04:18:56;2.50;;;0.40;;
2187;SDS011;1100;52.014;8.540;2023-07-20T04:21:22;1.87;;;0.80;;
2187;SDS011;1100;52.014;8.540;2023-07-20T04:23:48;1.98;;;0.70;;
2187;SDS011;1100;52.014;8.540;2023-07-20T04:26:14;2.63;;;0.60;;
2187;SDS011;1100;52.014;8.540;2023-07-20T04:28:39;2.97;;;0.95;;
2187;SDS011;1100;52.014;8.540;2023-07-20T04:31:10;1.67;;;0.50;;
2187;SDS011;1100;52.014;8.540;2023-07-20T04:33:40;3.08;;;0.93;;
2187;SDS011;1100;52.014;8.540;2023-07-20T04:36:05;1.80;;;0.57;;
2187;SDS011;1100;52.014;8.540;2023-07-20T04:38:31;2.20;;;0.77;;
2187;SDS011;1100;52.014;8.540;2023-07-20T04:40:56;2.83;;;1.17;;
2187;SDS011;1100;52.014;8.540;2023-07-20T04:43:22;4.10;;;0.60;;
2187;SDS011;1100;52.014;8.540;2023-07-20T04:45:47;2.20;;;1.00;;
2187;SDS011;1100;52.014;8.540;2023-07-20T04:48:13;2.43;;;0.97;;
2187;SDS011;1100;52.014;8.540;2023-07-20T04:50:40;3.45;;;1.17;;
2187;SDS011;1100;52.014;8.540;2023-07-20T04:53:06;3.05;;;0.70;;
2187;SDS011;1100;52.014;8.540;2023-07-20T04:55:32;2.10;;;0.80;;
2187;SDS011;1100;52.014;8.540;2023-07-20T04:58:01;2.25;;;0.65;;
2187;SDS011;1100;52.014;8.540;2023-07-20T05:00:28;3.33;;;0.85;;
2187;SDS011;1100;52.014;8.540;2023-07-20T05:02:54;2.10;;;0.73;;
2187;SDS011;1100;52.014;8.540;2023-07-20T05:05:19;2.90;;;1.03;;
2187;SDS011;1100;52.014;8.540;2023-07-20T05:07:44;2.17;;;0.80;;
2187;SDS011;1100;52.014;8.540;2023-07-20T05:10:09;2.13;;;0.67;;
2187;SDS011;1100;52.014;8.540;2023-07-20T05:12:35;1.70;;;0.70;;
2187;SDS011;1100;52.014;8.540;2023-07-20T05:15:00;1.40;;;0.50;;
2187;SDS011;1100;52.014;8.540;2023-07-20T05:17:25;3.23;;;1.50;;
2187;SDS011;1100;52.014;8.540;2023-07-20T05:19:51;1.47;;;0.60;;
2187;SDS011;1100;52.014;8.540;2023-07-20T05:22:16;2.60;;;1.13;;
2187;SDS011;1100;52.014;8.540;2023-07-20T05:24:41;1.88;;;0.70;;
2187;SDS011;1100;52.014;8.540;2023-07-20T05:27:07;1.90;;;0.60;;
2187;SDS011;1100;52.014;8.540;2023-07-20T05:29:32;1.87;;;0.70;;
2187;SDS011;1100;52.014;8.540;2023-07-20T05:31:58;1.73;;;0.47;;
2187;SDS011;1100;52.014;8.540;2023-07-20T05:34:23;2.72;;;0.80;;
2187;SDS011;1100;52.014;8.540;2023-07-20T05:36:49;1.53;;;0.60;;
2187;SDS011;1100;52.014;8.540;2023-07-20T05:39:16;2.50;;;1.00;;
2187;SDS011;1100;52.014;8.540;2023-07-20T05:41:42;1.90;;;0.68;;
2187;SDS011;1100;52.014;8.540;2023-07-20T05:44:08;2.03;;;0.60;;
2187;SDS011;1100;52.014;8.540;2023-07-20T05:46:33;2.83;;;0.90;;
2187;SDS011;1100;52.014;8.540;2023-07-20T05:48:58;1.63;;;0.57;;
2187;SDS011;1100;52.014;8.540;2023-07-20T05:51:24;1.70;;;0.50;;
2187;SDS011;1100;52.014;8.540;2023-07-20T05:53:49;1.87;;;0.73;;
2187;SDS011;1100;52.014;8.540;2023-07-20T05:56:14;1.20;;;0.30;;
2187;SDS011;1100;52.014;8.540;2023-07-20T05:58:39;1.60;;;0.50;;
2187;SDS011;1100;52.014;8.540;2023-07-20T06:01:05;1.30;;;0.30;;
2187;SDS011;1100;52.014;8.540;2023-07-20T06:03:31;1.23;;;0.40;;
2187;SDS011;1100;52.014;8.540;2023-07-20T06:06:01;1.77;;;0.47;;
2187;SDS011;1100;52.014;8.540;2023-07-20T06:08:30;2.38;;;0.90;;
2187;SDS011;1100;52.014;8.540;2023-07-20T06:10:56;3.30;;;0.80;;
2187;SDS011;1100;52.014;8.540;2023-07-20T06:13:22;1.55;;;0.47;;
2187;SDS011;1100;52.014;8.540;2023-07-20T06:15:48;1.63;;;0.55;;
2187;SDS011;1100;52.014;8.540;2023-07-20T06:18:14;1.83;;;0.70;;
2187;SDS011;1100;52.014;8.540;2023-07-20T06:20:39;1.50;;;0.40;;
2187;SDS011;1100;52.014;8.540;2023-07-20T06:23:05;2.20;;;0.77;;
2187;SDS011;1100;52.014;8.540;2023-07-20T06:25:30;1.98;;;0.60;;
2187;SDS011;1100;52.014;8.540;2023-07-20T06:27:56;1.70;;;0.50;;
2187;SDS011;1100;52.014;8.540;2023-07-20T06:30:22;1.50;;;0.45;;
2187;SDS011;1100;52.014;8.540;2023-07-20T06:32:49;2.50;;;0.85;;
2187;SDS011;1100;52.014;8.540;2023-07-20T06:35:15;1.97;;;0.80;;
2187;SDS011;1100;52.014;8.540;2023-07-20T06:37:41;1.33;;;0.57;;
2187;SDS011;1100;52.014;8.540;2023-07-20T06:40:07;3.83;;;0.63;;
2187;SDS011;1100;52.014;8.540;2023-07-20T06:42:34;2.00;;;0.75;;
2187;SDS011;1100;52.014;8.540;2023-07-20T06:45:00;1.60;;;0.50;;
2187;SDS011;1100;52.014;8.540;2023-07-20T06:47:25;1.83;;;0.50;;
2187;SDS011;1100;52.014;8.540;2023-07-20T06:49:51;2.20;;;0.60;;
2187;SDS011;1100;52.014;8.540;2023-07-20T06:52:16;1.40;;;0.50;;
2187;SDS011;1100;52.014;8.540;2023-07-20T06:54:41;2.10;;;0.70;;
2187;SDS011;1100;52.014;8.540;2023-07-20T06:57:06;1.60;;;0.43;;
2187;SDS011;1100;52.014;8.540;2023-07-20T06:59:32;3.08;;;0.75;;
2187;SDS011;1100;52.014;8.540;2023-07-20T07:01:57;1.93;;;0.50;;
2187;SDS011;1100;52.014;8.540;2023-07-20T07:04:22;1.60;;;0.40;;
2187;SDS011;1100;52.014;8.540;2023-07-20T07:06:48;1.50;;;0.53;;
2187;SDS011;1100;52.014;8.540;2023-07-20T07:09:13;1.73;;;0.30;;
2187;SDS011;1100;52.014;8.540;2023-07-20T07:11:39;2.10;;;0.60;;
2187;SDS011;1100;52.014;8.540;2023-07-20T07:14:04;1.50;;;0.50;;
2187;SDS011;1100;52.014;8.540;2023-07-20T07:16:29;1.30;;;0.40;;
2187;SDS011;1100;52.014;8.540;2023-07-20T07:18:55;2.60;;;0.50;;
2187;SDS011;1100;52.014;8.540;2023-07-20T07:21:20;1.67;;;0.50;;
2187;SDS011;1100;52.014;8.540;2023-07-20T07:23:46;5.73;;;0.60;;
2187;SDS011;1100;52.014;8.540;2023-07-20T07:26:12;1.50;;;0.50;;
2187;SDS011;1100;52.014;8.540;2023-07-20T07:28:37;2.45;;;0.60;;
2187;SDS011;1100;52.014;8.540;2023-07-20T07:31:06;1.20;;;0.30;;
2187;SDS011;1100;52.014;8.540;2023-07-20T07:33:32;1.35;;;0.40;;
2187;SDS011;1100;52.014;8.540;2023-07-20T07:35:58;1.00;;;0.23;;
2187;SDS011;1100;52.014;8.540;2023-07-20T07:38:23;1.30;;;0.40;;
2187;SDS011;1100;52.014;8.540;2023-07-20T07:40:48;1.50;;;0.50;;
2187;SDS011;1100;52.014;8.540;2023-07-20T07:43:14;1.67;;;0.50;;
2187;SDS011;1100;52.014;8.540;2023-07-20T07:45:39;1.33;;;0.40;;
2187;SDS011;1100;52.014;8.540;2023-07-20T07:48:06;5.43;;;0.60;;
2187;SDS011;1100;52.014;8.540;2023-07-20T07:50:32;1.30;;;0.40;;
2187;SDS011;1100;52.014;8.540;2023-07-20T07:52:58;1.45;;;0.40;;
2187;SDS011;1100;52.014;8.540;2023-07-20T07:55:25;1.50;;;0.50;;
2187;SDS011;1100;52.014;8.540;2023-07-20T07:57:53;1.50;;;0.47;;
2187;SDS011;1100;52.014;8.540;2023-07-20T08:00:18;2.00;;;0.30;;
2187;SDS011;1100;52.014;8.540;2023-07-20T08:02:44;1.70;;;0.60;;
2187;SDS011;1100;52.014;8.540;2023-07-20T08:05:11;3.35;;;0.52;;
2187;SDS011;1100;52.014;8.540;2023-07-20T08:07:37;1.45;;;0.40;;
2187;SDS011;1100;52.014;8.540;2023-07-20T08:10:03;1.80;;;0.50;;
2187;SDS011;1100;52.014;8.540;2023-07-20T08:12:29;1.20;;;0.40;;
2187;SDS011;1100;52.014;8.540;2023-07-20T08:14:54;1.47;;;0.37;;
2187;SDS011;1100;52.014;8.540;2023-07-20T08:17:19;1.73;;;0.40;;
2187;SDS011;1100;52.014;8.540;2023-07-20T08:19:46;1.20;;;0.40;;
2187;SDS011;1100;52.014;8.540;2023-07-20T08:22:11;1.13;;;0.40;;
2187;SDS011;1100;52.014;8.540;2023-07-20T08:24:39;1.30;;;0.40;;
2187;SDS011;1100;52.014;8.540;2023-07-20T08:27:05;3.08;;;0.50;;
2187;SDS011;1100;52.014;8.540;2023-07-20T08:29:30;1.30;;;0.30;;
2187;SDS011;1100;52.014;8.540;2023-07-20T08:31:56;1.43;;;0.40;;
2187;SDS011;1100;52.014;8.540;2023-07-20T08:34:21;1.37;;;0.50;;
2187;SDS011;1100;52.014;8.540;2023-07-20T08:36:46;2.00;;;0.50;;
2187;SDS011;1100;52.014;8.540;2023-07-20T08:39:12;1.77;;;0.50;;
2187;SDS011;1100;52.014;8.540;2023-07-20T08:41:37;1.00;;;0.30;;
2187;SDS011;1100;52.014;8.540;2023-07-20T08:44:04;1.27;;;0.40;;
2187;SDS011;1100;52.014;8.540;2023-07-20T08:46:30;1.40;;;0.55;;
2187;SDS011;1100;52.014;8.540;2023-07-20T08:48:56;1.42;;;0.40;;
2187;SDS011;1100;52.014;8.540;2023-07-20T08:51:22;1.67;;;0.60;;
2187;SDS011;1100;52.014;8.540;2023-07-20T08:53:50;1.63;;;0.47;;
2187;SDS011;1100;52.014;8.540;2023-07-20T08:56:16;1.60;;;0.47;;
2187;SDS011;1100;52.014;8.540;2023-07-20T08:58:43;2.55;;;0.60;;
2187;SDS011;1100;52.014;8.540;2023-07-20T09:01:09;1.52;;;0.60;;
2187;SDS011;1100;52.014;8.540;2023-07-20T09:03:35;1.95;;;0.68;;
2187;SDS011;1100;52.014;8.540;2023-07-20T09:06:04;1.57;;;0.50;;
2187;SDS011;1100;52.014;8.540;2023-07-20T09:08:29;1.80;;;0.50;;
2187;SDS011;1100;52.014;8.540;2023-07-20T09:10:55;1.40;;;0.43;;
2187;SDS011;1100;52.014;8.540;2023-07-20T09:13:20;1.80;;;0.60;;
2187;SDS011;1100;52.014;8.540;2023-07-20T09:15:46;1.90;;;0.63;;
2187;SDS011;1100;52.014;8.540;2023-07-20T09:18:12;1.77;;;0.40;;
2187;SDS011;1100;52.014;8.540;2023-07-20T09:20:48;1.75;;;0.50;;
2187;SDS011;1100;52.014;8.540;2023-07-20T09:23:14;1.33;;;0.40;;
2187;SDS011;1100;52.014;8.540;2023-07-20T09:25:39;1.48;;;0.50;;
2187;SDS011;1100;52.014;8.540;2023-07-20T09:28:05;1.30;;;0.40;;
2187;SDS011;1100;52.014;8.540;2023-07-20T09:30:31;2.33;;;0.40;;
2187;SDS011;1100;52.014;8.540;2023-07-20T09:32:56;3.90;;;0.50;;
2187;SDS011;1100;52.014;8.540;2023-07-20T09:35:22;1.70;;;0.47;;
2187;SDS011;1100;52.014;8.540;2023-07-20T09:38:00;1.42;;;0.35;;
2187;SDS011;1100;52.014;8.540;2023-07-20T09:40:26;2.00;;;0.70;;
2187;SDS011;1100;52.014;8.540;2023-07-20T09:42:53;1.23;;;0.30;;
2187;SDS011;1100;52.014;8.540;2023-07-20T09:45:27;1.95;;;0.60;;
2187;SDS011;1100;52.014;8.540;2023-07-20T09:48:13;1.30;;;0.50;;
2187;SDS011;1100;52.014;8.540;2023-07-20T09:50:39;0.87;;;0.20;;
2187;SDS011;1100;52.014;8.540;2023-07-20T09:53:09;1.67;;;0.60;;
2187;SDS011;1100;52.014;8.540;2023-07-20T09:55:39;1.50;;;0.60;;
2187;SDS011;1100;52.014;8.540;2023-07-20T09:58:05;1.43;;;0.40;;
2187;SDS011;1100;52.014;8.540;2023-07-20T10:00:32;1.17;;;0.38;;
2187;SDS011;1100;52.014;8.540;2023-07-20T10:02:59;1.48;;;0.35;;
2187;SDS011;1100;52.014;8.540;2023-07-20T10:05:28;1.60;;;0.60;;
2187;SDS011;1100;52.014;8.540;2023-07-20T10:07:59;2.78;;;0.50;;
2187;SDS011;1100;52.014;8.540;2023-07-20T10:10:26;1.60;;;0.60;;
2187;SDS011;1100;52.014;8.540;2023-07-20T10:12:52;1.58;;;0.55;;
2187;SDS011;1100;52.014;8.540;2023-07-20T10:15:19;1.67;;;0.60;;
2187;SDS011;1100;52.014;8.540;2023-07-20T10:18:07;1.25;;;0.40;;
2187;SDS011;1100;52.014;8.540;2023-07-20T10:20:38;1.23;;;0.30;;
2187;SDS011;1100;52.014;8.540;2023-07-20T10:23:06;1.52;;;0.43;;
2187;SDS011;1100;52.014;8.540;2023-07-20T10:25:32;1.63;;;0.50;;
2187;SDS011;1100;52.014;8.540;2023-07-20T10:28:02;1.50;;;0.55;;
2187;SDS011;1100;52.014;8.540;2023-07-20T10:30:30;1.20;;;0.40;;
2187;SDS011;1100;52.014;8.540;2023-07-20T10:32:56;1.42;;;0.50;;
2187;SDS011;1100;52.014;8.540;2023-07-20T10:35:22;1.40;;;0.43;;
2187;SDS011;1100;52.014;8.540;2023-07-20T10:37:48;1.30;;;0.40;;
2187;SDS011;1100;52.014;8.540;2023-07-20T10:43:06;1.10;;;0.40;;
2187;SDS011;1100;52.014;8.540;2023-07-20T10:45:36;1.48;;;0.50;;
2187;SDS011;1100;52.014;8.540;2023-07-20T10:48:05;1.63;;;0.70;;
2187;SDS011;1100;52.014;8.540;2023-07-20T10:50:37;1.95;;;0.50;;
2187;SDS011;1100;52.014;8.540;2023-07-20T10:53:16;2.20;;;0.50;;
2187;SDS011;1100;52.014;8.540;2023-07-20T10:55:43;2.25;;;0.50;;
2187;SDS011;1100;52.014;8.540;2023-07-20T10:58:10;1.90;;;0.60;;
2187;SDS011;1100;52.014;8.540;2023-07-20T11:00:37;1.60;;;0.50;;
2187;SDS011;1100;52.014;8.540;2023-07-20T11:03:02;3.13;;;0.65;;
2187;SDS011;1100;52.014;8.540;2023-07-20T11:05:36;1.83;;;0.63;;
2187;SDS011;1100;52.014;8.540;2023-07-20T11:08:03;2.00;;;0.80;;
2187;SDS011;1100;52.014;8.540;2023-07-20T11:10:30;3.08;;;0.95;;
2187;SDS011;1100;52.014;8.540;2023-07-20T11:18:21;1.60;;;0.60;;
2187;SDS011;1100;52.014;8.540;2023-07-20T11:20:51;1.90;;;0.65;;
2187;SDS011;1100;52.014;8.540;2023-07-20T11:23:16;2.40;;;0.70;;
2187;SDS011;1100;52.014;8.540;2023-07-20T11:25:42;2.40;;;0.63;;
2187;SDS011;1100;52.014;8.540;2023-07-20T11:28:08;1.80;;;0.60;;
2187;SDS011;1100;52.014;8.540;2023-07-20T11:30:35;1.65;;;0.50;;
2187;SDS011;1100;52.014;8.540;2023-07-20T11:33:00;1.80;;;0.53;;
2187;SDS011;1100;52.014;8.540;2023-07-20T11:35:25;1.87;;;0.53;;
2187;SDS011;1100;52.014;8.540;2023-07-20T11:37:51;1.73;;;0.52;;
2187;SDS011;1100;52.014;8.540;2023-07-20T11:40:16;1.70;;;0.50;;
2187;SDS011;1100;52.014;8.540;2023-07-20T11:42:41;1.93;;;0.50;;
2187;SDS011;1100;52.014;8.540;2023-07-20T11:45:08;2.20;;;0.85;;
2187;SDS011;1100;52.014;8.540;2023-07-20T11:47:34;2.30;;;0.70;;
2187;SDS011;1100;52.014;8.540;2023-07-20T11:50:05;1.95;;;0.57;;
2187;SDS011;1100;52.014;8.540;2023-07-20T11:52:31;1.87;;;0.50;;
2187;SDS011;1100;52.014;8.540;2023-07-20T11:54:56;1.92;;;0.60;;
2187;SDS011;1100;52.014;8.540;2023-07-20T11:57:22;2.30;;;0.50;;
2187;SDS011;1100;52.014;8.540;2023-07-20T11:59:54;2.78;;;0.70;;
2187;SDS011;1100;52.014;8.540;2023-07-20T12:02:24;2.30;;;0.83;;
2187;SDS011;1100;52.014;8.540;2023-07-20T12:04:52;2.15;;;0.70;;
2187;SDS011;1100;52.014;8.540;2023-07-20T12:07:19;2.78;;;1.00;;
2187;SDS011;1100;52.014;8.540;2023-07-20T12:09:44;2.38;;;0.77;;
2187;SDS011;1100;52.014;8.540;2023-07-20T12:12:10;2.00;;;0.70;;
2187;SDS011;1100;52.014;8.540;2023-07-20T12:14:37;2.00;;;0.55;;
2187;SDS011;1100;52.014;8.540;2023-07-20T12:17:02;2.23;;;0.70;;
2187;SDS011;1100;52.014;8.540;2023-07-20T12:19:27;2.70;;;0.90;;
2187;SDS011;1100;52.014;8.540;2023-07-20T12:21:56;1.85;;;0.60;;
2187;SDS011;1100;52.014;8.540;2023-07-20T12:24:24;2.80;;;0.90;;
2187;SDS011;1100;52.014;8.540;2023-07-20T12:26:55;2.15;;;0.77;;
2187;SDS011;1100;52.014;8.540;2023-07-20T12:29:22;2.17;;;0.70;;
2187;SDS011;1100;52.014;8.540;2023-07-20T12:31:47;2.03;;;0.80;;
2187;SDS011;1100;52.014;8.540;2023-07-20T12:34:13;2.03;;;0.63;;
2187;SDS011;1100;52.014;8.540;2023-07-20T12:36:38;2.10;;;0.70;;
2187;SDS011;1100;52.014;8.540;2023-07-20T12:39:03;2.07;;;0.73;;
2187;SDS011;1100;52.014;8.540;2023-07-20T12:41:28;1.90;;;0.60;;
2187;SDS011;1100;52.014;8.540;2023-07-20T12:43:54;2.70;;;0.70;;
2187;SDS011;1100;52.014;8.540;2023-07-20T12:46:22;1.65;;;0.55;;
2187;SDS011;1100;52.014;8.540;2023-07-20T12:48:48;1.92;;;0.68;;
2187;SDS011;1100;52.014;8.540;2023-07-20T12:51:13;1.50;;;0.50;;
2187;SDS011;1100;52.014;8.540;2023-07-20T12:53:39;2.00;;;0.63;;
2187;SDS011;1100;52.014;8.540;2023-07-20T12:56:04;2.00;;;0.60;;
2187;SDS011;1100;52.014;8.540;2023-07-20T12:58:30;1.90;;;0.50;;
2187;SDS011;1100;52.014;8.540;2023-07-20T13:00:55;1.83;;;0.50;;
2187;SDS011;1100;52.014;8.540;2023-07-20T13:03:21;1.70;;;0.40;;
2187;SDS011;1100;52.014;8.540;2023-07-20T13:05:46;1.33;;;0.43;;
2187;SDS011;1100;52.014;8.540;2023-07-20T13:08:12;1.90;;;0.63;;
2187;SDS011;1100;52.014;8.540;2023-07-20T13:10:38;1.70;;;0.50;;
2187;SDS011;1100;52.014;8.540;2023-07-20T13:13:04;1.40;;;0.30;;
2187;SDS011;1100;52.014;8.540;2023-07-20T13:15:30;1.30;;;0.40;;
2187;SDS011;1100;52.014;8.540;2023-07-20T13:17:57;1.30;;;0.40;;
2187;SDS011;1100;52.014;8.540;2023-07-20T13:20:22;1.40;;;0.40;;
2187;SDS011;1100;52.014;8.540;2023-07-20T13:22:47;1.73;;;0.60;;
2187;SDS011;1100;52.014;8.540;2023-07-20T13:25:13;1.55;;;0.50;;
2187;SDS011;1100;52.014;8.540;2023-07-20T13:27:39;1.50;;;0.50;;
2187;SDS011;1100;52.014;8.540;2023-07-20T13:30:04;1.43;;;0.43;;
2187;SDS011;1100;52.014;8.540;2023-07-20T13:32:32;1.20;;;0.30;;
2187;SDS011;1100;52.014;8.540;2023-07-20T13:34:58;1.48;;;0.50;;
2187;SDS011;1100;52.014;8.540;2023-07-20T13:37:24;1.87;;;0.60;;
2187;SDS011;1100;52.014;8.540;2023-07-20T13:39:49;1.83;;;0.60;;
2187;SDS011;1100;52.014;8.540;2023-07-20T13:42:14;1.40;;;0.43;;
2187;SDS011;1100;52.014;8.540;2023-07-20T13:44:40;1.90;;;0.50;;
2187;SDS011;1100;52.014;8.540;2023-07-20T13:47:06;1.55;;;0.50;;
2187;SDS011;1100;52.014;8.540;2023-07-20T13:49:31;1.40;;;0.40;;
2187;SDS011;1100;52.014;8.540;2023-07-20T13:51:57;1.42;;;0.40;;
2187;SDS011;1100;52.014;8.540;2023-07-20T13:54:23;1.30;;;0.33;;
2187;SDS011;1100;52.014;8.540;2023-07-20T13:56:48;2.30;;;0.60;;
2187;SDS011;1100;52.014;8.540;2023-07-20T13:59:14;1.40;;;0.50;;
2187;SDS011;1100;52.014;8.540;2023-07-20T14:01:39;1.23;;;0.47;;
2187;SDS011;1100;52.014;8.540;2023-07-20T14:04:04;1.43;;;0.30;;
2187;SDS011;1100;52.014;8.540;2023-07-20T14:06:31;1.50;;;0.40;;
2187;SDS011;1100;52.014;8.540;2023-07-20T14:08:57;2.38;;;0.55;;
2187;SDS011;1100;52.014;8.540;2023-07-20T14:11:23;1.10;;;0.30;;
2187;SDS011;1100;52.014;8.540;2023-07-20T14:13:48;1.63;;;0.50;;
2187;SDS011;1100;52.014;8.540;2023-07-20T14:16:14;1.70;;;0.50;;
2187;SDS011;1100;52.014;8.540;2023-07-20T14:18:39;1.60;;;0.50;;
2187;SDS011;1100;52.014;8.540;2023-07-20T14:21:05;1.20;;;0.30;;
2187;SDS011;1100;52.014;8.540;2023-07-20T14:23:31;5.00;;;0.50;;
2187;SDS011;1100;52.014;8.540;2023-07-20T14:25:57;1.53;;;0.40;;
2187;SDS011;1100;52.014;8.540;2023-07-20T14:28:22;1.60;;;0.60;;
2187;SDS011;1100;52.014;8.540;2023-07-20T14:30:48;2.03;;;0.53;;
2187;SDS011;1100;52.014;8.540;2023-07-20T14:33:13;2.10;;;0.50;;
2187;SDS011;1100;52.014;8.540;2023-07-20T14:35:38;2.27;;;0.77;;
2187;SDS011;1100;52.014;8.540;2023-07-20T14:38:04;2.80;;;0.80;;
2187;SDS011;1100;52.014;8.540;2023-07-20T14:40:29;2.33;;;0.60;;
2187;SDS011;1100;52.014;8.540;2023-07-20T14:42:55;1.50;;;0.43;;
2187;SDS011;1100;52.014;8.540;2023-07-20T14:45:21;1.70;;;0.50;;
2187;SDS011;1100;52.014;8.540;2023-07-20T14:47:46;1.50;;;0.40;;
2187;SDS011;1100;52.014;8.540;2023-07-20T14:50:14;1.70;;;0.50;;
2187;SDS011;1100;52.014;8.540;2023-07-20T14:52:39;2.30;;;0.70;;
2187;SDS011;1100;52.014;8.540;2023-07-20T14:55:04;1.97;;;0.80;;
2187;SDS011;1100;52.014;8.540;2023-07-20T14:57:30;1.88;;;0.60;;
2187;SDS011;1100;52.014;8.540;2023-07-20T14:59:55;1.73;;;0.63;;
2187;SDS011;1100;52.014;8.540;2023-07-20T15:02:21;1.70;;;0.60;;
2187;SDS011;1100;52.014;8.540;2023-07-20T15:04:47;1.60;;;0.60;;
2187;SDS011;1100;52.014;8.540;2023-07-20T15:07:14;1.60;;;0.50;;
2187;SDS011;1100;52.014;8.540;2023-07-20T15:09:40;1.88;;;0.40;;
2187;SDS011;1100;52.014;8.540;2023-07-20T15:12:06;4.20;;;0.60;;
2187;SDS011;1100;52.014;8.540;2023-07-20T15:14:31;2.78;;;0.60;;
2187;SDS011;1100;52.014;8.540;2023-07-20T15:16:57;1.60;;;0.60;;
2187;SDS011;1100;52.014;8.540;2023-07-20T15:19:22;1.70;;;0.50;;
2187;SDS011;1100;52.014;8.540;2023-07-20T15:21:47;5.40;;;0.70;;
2187;SDS011;1100;52.014;8.540;2023-07-20T15:24:13;1.50;;;0.60;;
2187;SDS011;1100;52.014;8.540;2023-07-20T15:26:38;1.90;;;0.60;;